Home > Products > Valid Products > TAF

000
FTUS44 KMOB 311100
TAFPNS
TAF
KPNS 311120Z 3112/0112 34005KT P6SM SKC
     FM311700 33017G24KT P6SM SCT300
     FM010300 34012KT P6SM SKC=



000
FTUS44 KMOB 311100
TAFMOB
TAF
KMOB 311120Z 3112/0112 31003KT P6SM SKC
     FM311500 33012G18KT P6SM FEW300
     FM010300 34008KT P6SM SKC=



000
FTUS44 KMOB 310500
TAFPNS
TAF
KPNS 310528Z 3106/0106 VRB03KT P6SM SKC
     FM311200 35006KT P6SM SKC
     FM311700 33015G22KT P6SM SCT300=



000
FTUS44 KMOB 310500
TAFMOB
TAF
KMOB 310528Z 3106/0106 VRB03KT P6SM SKC
     FM311200 35006KT P6SM SKC
     FM311500 33012G18KT P6SM FEW300=



000
FTUS44 KMOB 302300 RRA
TAFPNS
TAF
KPNS 302343Z 3100/3124 34005KT P6SM SKC
     FM310200 VRB03KT P6SM SKC
     FM311200 35006KT P6SM SKC=



000
FTUS44 KMOB 302300 RRA
TAFMOB
TAF
KMOB 302343Z 3100/3124 35006KT P6SM FEW120
     FM310200 VRB03KT P6SM SKC
     FM311200 35006KT P6SM SKC=



000
FTUS44 KMOB 301700
TAFMOB
TAF
KMOB 301720Z 3018/3118 02012G17KT P6SM SKC
     FM302200 34004KT P6SM SKC=



000
FTUS44 KMOB 301100
TAFMOB
TAF
KMOB 301131Z 3012/3112 01005KT P6SM FEW070 SCT200
     FM301500 35008KT P6SM SKC
     FM310300 34003KT P6SM SKC=



000
FTUS44 KMOB 301100
TAFPNS
TAF
KPNS 301131Z 3012/3112 02008G17KT P6SM OVC060
     FM301600 36008KT P6SM SKC
     FM310300 34005KT P6SM SKC=



000
FTUS44 KMOB 300500
TAFPNS
TAF
KPNS 300533Z 3006/3106 34009KT P6SM SCT010 BKN014
     FM301200 01008KT P6SM SKC
     FM301800 36008KT P6SM SKC=



000
FTUS44 KMOB 300500
TAFMOB
TAF
KMOB 300533Z 3006/3106 01009KT P6SM SCT080
     FM301200 35008KT P6SM SKC
     FM301500 35008KT P6SM SKC=



000
FTUS44 KMOB 292300 AAA
TAFMOB
TAF AMD
KMOB 292328Z 2923/3024 33015G21KT P6SM VCTS SCT030CB OVC070
     FM300030 01012KT P6SM SCT030
     FM301200 01006KT P6SM SKC=



000
FTUS44 KMOB 292300 AAA
TAFPNS
TAF AMD
KPNS 292328Z 2923/3024 VRB03KT P6SM FEW045
     FM300030 35012KT P6SM SCT030
     FM301200 01006KT P6SM SKC=



000
FTUS44 KMOB 292300
TAFPNS
TAF
KPNS 292326Z 3000/3024 VRB03KT P6SM FEW045
     FM300030 35010KT P6SM SCT030
     FM301200 01006KT P6SM SKC=



000
FTUS44 KMOB 292300
TAFMOB
TAF
KMOB 292326Z 3000/3024 33015G21KT P6SM VCTS SCT030CB OVC070
     FM300030 01010KT P6SM SCT030
     FM301200 01006KT P6SM SKC=



000
FTUS44 KMOB 292200 AAA
TAFMOB
TAF AMD
KMOB 292253Z 2923/3018 31014G22KT P6SM VCTS SCT040CB SCT080 SCT200
     FM300000 35004KT P6SM FEW250
     FM301200 01006KT P6SM SKC=



000
FTUS44 KMOB 292200 AAA
TAFMOB
TAF AMD
KMOB 292253Z 2923/3018 31014G22KT P6SM VCTS SCT040CB SCT080 SCT200
     FM300000 35004KT P6SM FEW250
     FM301200 01006KT P6SM SKC=



000
FTUS44 KMOB 292200 AAC
TAFPNS
TAF AMD
KPNS 292208Z 2922/3018 15005KT P6SM VCTS SCT050CB BKN070
     FM292300 22007KT P6SM VCTS BKN040CB
     FM300000 35004KT P6SM FEW250
     FM301200 01006KT P6SM SKC=



000
FTUS44 KMOB 292100 AAB
TAFPNS
TAF AMD
KPNS 292150Z 2922/3018 VRB15G25KT 2SM TSRA OVC020CB
      TEMPO 2922/2923 34010G20KT 4SM TSRA OVC030CB
     FM292300 22007KT P6SM VCTS BKN040CB
     FM300000 35004KT P6SM FEW250
     FM301200 01006KT P6SM SKC=



000
FTUS44 KMOB 292100 AAA
TAFPNS
TAF AMD
KPNS 292130Z 2922/3018 22007KT 6SM TSRA BKN040CB
     FM292200 22007KT P6SM VCTS BKN040CB
     FM300000 35004KT P6SM FEW250
     FM301200 01006KT P6SM SKC=



000
FTUS44 KMOB 291700
TAFPNS
TAF
KPNS 291724Z 2918/3018 13005KT P6SM FEW035 BKN045
     FM292100 33005KT P6SM VCSH BKN030 BKN250
     FM300000 35004KT P6SM FEW250
     FM301200 01006KT P6SM SKC=



000
FTUS44 KMOB 291700
TAFMOB
TAF
KMOB 291724Z 2918/3018 26004KT P6SM BKN030 BKN200
     FM292100 33005KT P6SM VCSH BKN030 BKN250
     FM300000 35004KT P6SM FEW250
     FM301200 01006KT P6SM SKC=



000
FTUS44 KMOB 291100
TAFPNS
TAF
KPNS 291134Z 2912/3012 00000KT P6SM VCSH BKN028 BKN045 OVC080
     FM291500 25003KT P6SM VCSH SCT035 BKN100
     FM292100 22007KT P6SM VCTS BKN035CB BKN250 PROB30 2921/2924
      P6SM TSRA BKN025CB
     FM300000 32004KT P6SM SCT250=



000
FTUS44 KMOB 291100
TAFMOB
TAF
KMOB 291134Z 2912/3012 00000KT P6SM VCSH BKN080 BKN200
     FM291500 30002KT P6SM VCSH SCT035 BKN100
     FM292100 33005KT P6SM VCTS BKN035CB BKN250 PROB30 2921/2924
      P6SM TSRA BKN025CB
     FM300000 35004KT P6SM FEW250=



000
FTUS44 KMOB 290500
TAFPNS
TAF
KPNS 290529Z 2906/3006 00000KT P6SM VCSH SCT023 BKN080 OVC090
     FM291200 16005KT P6SM VCSH BKN025
      TEMPO 2912/2916 4SM SHRA OVC010=



000
FTUS44 KMOB 290500
TAFMOB
TAF
KMOB 290529Z 2906/3006 00000KT P6SM SCT090
     FM291200 VRB03KT P6SM VCSH BKN025
      TEMPO 2912/2916 4SM SHRA OVC010=



000
FTUS44 KMOB 282300
TAFMOB
TAF
KMOB 282326Z 2900/2924 15007KT P6SM BKN090 OVC120
      TEMPO 2909/2912 4SM BR
     FM291200 VRB03KT P6SM SCT025=



000
FTUS44 KMOB 282300
TAFPNS
TAF
KPNS 282326Z 2900/2924 17005KT P6SM FEW060 FEW100
      TEMPO 2909/2912 4SM BR
     FM291200 VRB03KT P6SM SCT025=



000
FTUS44 KMOB 281700
TAFPNS
TAF
KPNS 281720Z 2818/2918 15010KT P6SM BKN045 BKN050 BKN200
     FM290300 15004KT 4SM BR FEW015
      TEMPO 2909/2913 1SM BR BKN010
     FM291400 VRB03KT P6SM SCT025=



000
FTUS44 KMOB 281700
TAFMOB
TAF
KMOB 281720Z 2818/2918 13006KT P6SM SCT035 SCT050 BKN200
     FM290300 00000KT 4SM BR FEW015
      TEMPO 2909/2913 1SM BR BKN010
     FM291400 VRB03KT P6SM SCT025=



    US Dept of Commerce
    National Oceanic and Atmospheric Administration
    National Weather Service
    1325 East West Highway
    Silver Spring, MD 20910
    Page Author: NWS Internet Services Team
Disclaimer
Information Quality
Credits
Glossary
Privacy Policy
Freedom of Information Act (FOIA)
About Us
Career Opportunities